Time;durP1;ratioP1;P1;durP2;ratioP2;P2;SDS_P1;SDS_P2;PMS_P1;PMS_P2;Temp;Humidity;BMP_temperature;BMP_pressure;BME280_temperature;BME280_humidity;BME280_pressure;Samples;Min_cycle;Max_cycle;Signal;HPM_P1;HPM_P2
2024/04/20 00:01:38;;;;;;;2.75;1.45;;;8.90;99.90;;;;;;5430787;26;20014;-69
2024/04/20 00:04:04;;;;;;;1.60;1.17;;;8.90;99.90;;;;;;5429130;26;19995;-70
2024/04/20 00:06:30;;;;;;;4.10;1.42;;;9.00;99.90;;;;;;5430889;26;20002;-69
2024/04/20 00:08:56;;;;;;;3.08;1.60;;;9.00;99.90;;;;;;5430755;26;19991;-69
2024/04/20 00:11:25;;;;;;;3.28;1.60;;;9.00;99.90;;;;;;5432469;26;20064;-69
2024/04/20 00:13:52;;;;;;;3.03;1.20;;;9.10;99.90;;;;;;5434965;26;20068;-69
2024/04/20 00:16:18;;;;;;;3.67;1.40;;;9.10;99.90;;;;;;5433044;26;19990;-70
2024/04/20 00:18:44;;;;;;;3.08;1.52;;;9.10;99.90;;;;;;5425839;26;20445;-69
2024/04/20 00:21:09;;;;;;;2.05;1.48;;;9.10;99.90;;;;;;5432860;26;20106;-69
2024/04/20 00:23:35;;;;;;;5.00;1.65;;;9.10;99.90;;;;;;5427619;26;20011;-69
2024/04/20 00:26:05;;;;;;;2.85;1.55;;;9.20;99.90;;;;;;5433305;26;19999;-69
2024/04/20 00:28:31;;;;;;;2.63;1.40;;;9.20;99.90;;;;;;5434604;26;20494;-69
2024/04/20 00:30:58;;;;;;;3.40;1.63;;;9.30;99.90;;;;;;5428863;26;20075;-69
2024/04/20 00:33:23;;;;;;;2.85;1.52;;;9.20;99.90;;;;;;5435575;26;20015;-69
2024/04/20 00:35:49;;;;;;;2.78;1.45;;;9.20;99.90;;;;;;5429493;26;20991;-69
2024/04/20 00:38:15;;;;;;;5.80;1.85;;;9.20;99.90;;;;;;5435892;26;20346;-69
2024/04/20 00:40:41;;;;;;;2.40;1.50;;;9.20;99.90;;;;;;5432417;26;20009;-69
2024/04/20 00:43:16;;;;;;;3.05;1.40;;;9.30;99.90;;;;;;5432765;26;20018;-69
2024/04/20 00:45:44;;;;;;;4.22;1.45;;;9.30;99.90;;;;;;5432589;26;20513;-69
2024/04/20 00:48:11;;;;;;;2.67;1.60;;;9.20;99.90;;;;;;5434993;26;20939;-70
2024/04/20 00:50:39;;;;;;;6.00;1.50;;;9.20;99.90;;;;;;5431967;26;20021;-69
2024/04/20 00:53:07;;;;;;;1.13;0.95;;;9.20;99.90;;;;;;5433709;26;19998;-69
2024/04/20 00:55:34;;;;;;;2.28;1.40;;;9.20;99.90;;;;;;5427315;26;19999;-70
2024/04/20 00:58:02;;;;;;;2.45;1.20;;;9.20;99.90;;;;;;5431336;26;20025;-69
2024/04/20 01:00:29;;;;;;;4.85;1.45;;;9.20;99.90;;;;;;5428537;26;19999;-70
2024/04/20 01:02:55;;;;;;;1.98;1.13;;;9.20;99.90;;;;;;5435118;26;19995;-70
2024/04/20 01:05:21;;;;;;;2.20;1.60;;;9.10;99.90;;;;;;5430248;26;20014;-70
2024/04/20 01:07:47;;;;;;;1.70;1.30;;;9.10;99.90;;;;;;5432861;26;19998;-69
2024/04/20 01:10:13;;;;;;;1.48;0.93;;;9.10;99.90;;;;;;5428568;26;20011;-70
2024/04/20 01:12:39;;;;;;;2.90;1.10;;;9.00;99.90;;;;;;5433208;26;20022;-69
2024/04/20 01:15:05;;;;;;;2.60;1.30;;;9.00;99.90;;;;;;5428984;26;20006;-70
2024/04/20 01:17:31;;;;;;;2.45;1.20;;;9.00;99.90;;;;;;5431097;26;19997;-70
2024/04/20 01:19:57;;;;;;;1.83;1.30;;;9.00;99.90;;;;;;5425173;26;19995;-69
2024/04/20 01:22:23;;;;;;;2.08;1.23;;;9.00;99.90;;;;;;5431439;26;20081;-69
2024/04/20 01:24:51;;;;;;;2.10;1.00;;;9.00;99.90;;;;;;5430080;26;20006;-69
2024/04/20 01:27:17;;;;;;;1.90;1.23;;;8.90;99.90;;;;;;5429317;26;20009;-69
2024/04/20 01:29:42;;;;;;;2.05;1.38;;;8.90;99.90;;;;;;5432790;26;20886;-69
2024/04/20 01:32:08;;;;;;;1.02;0.88;;;8.90;99.90;;;;;;5434991;26;19995;-68
2024/04/20 01:34:34;;;;;;;2.30;1.17;;;8.90;99.90;;;;;;5429731;26;20017;-69
2024/04/20 01:37:00;;;;;;;1.27;1.17;;;8.90;99.90;;;;;;5428854;26;20013;-69
2024/04/20 01:39:25;;;;;;;1.25;0.93;;;8.90;99.90;;;;;;5433348;26;20006;-69
2024/04/20 01:41:51;;;;;;;0.75;0.75;;;8.80;99.90;;;;;;5434548;26;20009;-69
2024/04/20 01:44:17;;;;;;;1.02;0.80;;;8.90;99.90;;;;;;5440493;26;20081;-69
2024/04/20 01:46:43;;;;;;;2.38;0.90;;;8.80;99.90;;;;;;5437953;26;20001;-70
2024/04/20 01:49:10;;;;;;;5.60;1.20;;;8.80;99.90;;;;;;5436908;26;20439;-69
2024/04/20 01:51:35;;;;;;;2.90;1.08;;;8.80;99.90;;;;;;5440223;26;20075;-69
2024/04/20 01:54:01;;;;;;;1.40;1.13;;;8.70;99.90;;;;;;5435921;26;19995;-70
2024/04/20 01:56:27;;;;;;;1.55;1.30;;;8.70;99.90;;;;;;5431735;26;20022;-70
2024/04/20 01:58:53;;;;;;;1.15;0.90;;;8.70;99.90;;;;;;5436136;26;19999;-69
2024/04/20 02:01:19;;;;;;;2.03;1.00;;;8.70;99.90;;;;;;5436053;26;20516;-69
2024/04/20 02:03:45;;;;;;;2.00;1.20;;;8.70;99.90;;;;;;5434157;26;20031;-70
2024/04/20 02:06:10;;;;;;;2.25;1.00;;;8.60;99.90;;;;;;5433040;26;20081;-70
2024/04/20 02:08:36;;;;;;;1.38;1.20;;;8.60;99.90;;;;;;5437405;26;19999;-70
2024/04/20 02:11:02;;;;;;;1.20;1.13;;;8.60;99.90;;;;;;5428658;26;19999;-69
2024/04/20 02:13:28;;;;;;;1.70;0.95;;;8.60;99.90;;;;;;5439228;26;20006;-70
2024/04/20 02:15:54;;;;;;;2.42;1.00;;;8.60;99.90;;;;;;5435811;26;20007;-70
2024/04/20 02:18:20;;;;;;;0.98;0.98;;;8.60;99.90;;;;;;5433652;26;20104;-69
2024/04/20 02:20:46;;;;;;;2.55;1.05;;;8.60;99.90;;;;;;5433594;26;20080;-69
2024/04/20 02:23:12;;;;;;;2.85;0.88;;;8.60;99.90;;;;;;5435104;26;20470;-69
2024/04/20 02:25:38;;;;;;;0.70;0.70;;;8.60;99.90;;;;;;5431675;26;20007;-69
2024/04/20 02:28:04;;;;;;;1.00;0.90;;;8.50;99.90;;;;;;5434372;26;20000;-70
2024/04/20 02:30:30;;;;;;;1.05;0.70;;;8.50;99.90;;;;;;5433591;26;20059;-69
2024/04/20 02:32:56;;;;;;;1.35;0.85;;;8.40;99.90;;;;;;5437725;26;20007;-70
2024/04/20 02:35:22;;;;;;;0.63;0.50;;;8.40;99.90;;;;;;5430933;26;20039;-69
2024/04/20 02:37:48;;;;;;;3.97;0.95;;;8.40;99.90;;;;;;5433738;26;19998;-69
2024/04/20 02:40:14;;;;;;;2.90;0.90;;;8.40;99.90;;;;;;5430281;26;19999;-70
2024/04/20 02:42:40;;;;;;;4.60;0.77;;;8.30;99.90;;;;;;5432783;26;20003;-69
2024/04/20 02:45:12;;;;;;;0.60;0.50;;;8.40;99.90;;;;;;5434472;26;20007;-70
2024/04/20 02:47:39;;;;;;;0.40;0.40;;;8.30;99.90;;;;;;5431483;26;20009;-70
2024/04/20 02:50:05;;;;;;;0.80;0.65;;;8.30;99.90;;;;;;5432753;26;20057;-70
2024/04/20 02:52:31;;;;;;;0.30;0.30;;;8.20;99.90;;;;;;5436065;26;19998;-70
2024/04/20 02:54:56;;;;;;;1.38;0.40;;;8.20;99.90;;;;;;5433953;26;20002;-70
2024/04/20 02:57:22;;;;;;;0.77;0.40;;;8.10;99.90;;;;;;5437057;26;20022;-69
2024/04/20 02:59:48;;;;;;;0.43;0.30;;;8.10;99.90;;;;;;5436732;26;20360;-69
2024/04/20 03:02:14;;;;;;;0.77;0.60;;;8.10;99.90;;;;;;5431567;26;20450;-68
2024/04/20 03:04:39;;;;;;;0.52;0.38;;;7.90;99.90;;;;;;5436760;26;20010;-69
2024/04/20 03:07:06;;;;;;;0.25;0.25;;;7.80;99.90;;;;;;5427154;26;20009;-69
2024/04/20 03:09:32;;;;;;;1.80;0.50;;;7.80;99.90;;;;;;5436865;26;19998;-69
2024/04/20 03:11:57;;;;;;;0.20;0.20;;;7.80;99.90;;;;;;5431779;26;20009;-69
2024/04/20 03:14:23;;;;;;;1.05;0.38;;;7.80;99.90;;;;;;5437212;26;20285;-70
2024/04/20 03:16:49;;;;;;;0.63;0.40;;;7.90;99.90;;;;;;5437602;26;20014;-70
2024/04/20 03:19:15;;;;;;;0.30;0.30;;;7.90;99.90;;;;;;5435742;26;19998;-71
2024/04/20 03:21:41;;;;;;;1.40;0.50;;;8.00;99.90;;;;;;5429942;26;20018;-71
2024/04/20 03:24:07;;;;;;;0.52;0.52;;;8.00;99.90;;;;;;5436123;26;20019;-72
2024/04/20 03:26:33;;;;;;;0.32;0.32;;;8.00;99.90;;;;;;5434177;26;20006;-71
2024/04/20 03:28:58;;;;;;;0.20;0.20;;;7.90;99.90;;;;;;5435822;26;20571;-71
2024/04/20 03:31:24;;;;;;;1.65;0.30;;;8.00;99.90;;;;;;5431252;26;19999;-72
2024/04/20 03:33:50;;;;;;;0.85;0.38;;;7.90;99.90;;;;;;5437247;26;20028;-71
2024/04/20 03:36:17;;;;;;;0.20;0.20;;;7.80;99.90;;;;;;5433635;26;19998;-71
2024/04/20 03:38:46;;;;;;;0.95;0.50;;;7.90;99.90;;;;;;5436358;26;19998;-69
2024/04/20 03:41:12;;;;;;;1.05;0.47;;;7.90;99.90;;;;;;5432581;26;20701;-69
2024/04/20 03:43:38;;;;;;;0.95;0.70;;;7.90;99.90;;;;;;5437720;26;20036;-70
2024/04/20 03:46:04;;;;;;;1.27;0.50;;;7.90;99.90;;;;;;5426761;26;20087;-70
2024/04/20 03:48:31;;;;;;;0.77;0.52;;;7.90;99.90;;;;;;5433087;26;19999;-70
2024/04/20 03:50:57;;;;;;;1.00;0.40;;;7.90;99.90;;;;;;5431555;26;20003;-70
2024/04/20 03:53:24;;;;;;;0.80;0.40;;;7.90;99.90;;;;;;5434350;26;19999;-69
2024/04/20 03:55:53;;;;;;;0.98;0.50;;;7.90;99.90;;;;;;5433718;26;20003;-70
2024/04/20 03:58:19;;;;;;;0.40;0.40;;;7.90;99.90;;;;;;5433752;26;20046;-69
2024/04/20 04:00:46;;;;;;;0.40;0.40;;;7.90;99.90;;;;;;5431601;26;20505;-69
2024/04/20 04:03:21;;;;;;;0.80;0.30;;;7.80;99.90;;;;;;5435844;26;19995;-69
2024/04/20 04:05:47;;;;;;;0.70;0.60;;;7.80;99.90;;;;;;5432899;26;20017;-70
2024/04/20 04:08:13;;;;;;;0.35;0.32;;;7.80;99.90;;;;;;5429345;26;20764;-69
2024/04/20 04:10:38;;;;;;;0.50;0.50;;;7.80;99.90;;;;;;5428797;26;20018;-69
2024/04/20 04:13:04;;;;;;;2.85;0.60;;;7.80;99.90;;;;;;5431711;26;20003;-69
2024/04/20 04:15:31;;;;;;;0.50;0.35;;;7.80;99.90;;;;;;5436252;26;20675;-70
2024/04/20 04:17:56;;;;;;;0.20;0.20;;;7.80;99.90;;;;;;5436834;26;19991;-70
2024/04/20 04:20:22;;;;;;;0.60;0.30;;;7.80;99.90;;;;;;5436185;26;20002;-69
2024/04/20 04:22:49;;;;;;;3.20;0.30;;;7.80;99.90;;;;;;5427450;26;20002;-70
2024/04/20 04:25:15;;;;;;;0.52;0.40;;;7.80;99.90;;;;;;5432333;26;20003;-70
2024/04/20 04:27:41;;;;;;;0.57;0.40;;;7.80;99.90;;;;;;5435659;26;20014;-70
2024/04/20 04:30:07;;;;;;;1.88;0.52;;;7.80;99.90;;;;;;5435843;26;20427;-70
2024/04/20 04:32:33;;;;;;;0.35;0.35;;;7.70;99.90;;;;;;5433239;26;19999;-69
2024/04/20 04:34:59;;;;;;;0.52;0.45;;;7.60;99.90;;;;;;5432565;26;20509;-69
2024/04/20 04:37:27;;;;;;;0.85;0.50;;;7.60;99.90;;;;;;5435321;26;20756;-69
2024/04/20 04:39:53;;;;;;;1.83;0.38;;;7.60;99.90;;;;;;5428658;26;20805;-69
2024/04/20 04:42:19;;;;;;;0.40;0.40;;;7.60;99.90;;;;;;5430555;26;20036;-70
2024/04/20 04:44:44;;;;;;;0.45;0.35;;;7.60;99.90;;;;;;5432095;26;20556;-70
2024/04/20 04:47:10;;;;;;;1.60;0.40;;;7.60;99.90;;;;;;5417475;26;20402;-70
2024/04/20 04:49:36;;;;;;;0.28;0.28;;;7.60;99.90;;;;;;5436774;26;20039;-69
2024/04/20 04:52:02;;;;;;;0.55;0.40;;;7.60;99.90;;;;;;5428013;26;20400;-69
2024/04/20 04:54:28;;;;;;;0.60;0.40;;;7.50;99.90;;;;;;5434001;26;20062;-69
2024/04/20 04:56:54;;;;;;;0.30;0.30;;;7.50;99.90;;;;;;5433827;26;20006;-69
2024/04/20 04:59:22;;;;;;;0.75;0.43;;;7.50;99.90;;;;;;5431935;26;19994;-70
2024/04/20 05:01:52;;;;;;;0.40;0.40;;;7.50;99.90;;;;;;5425951;26;19998;-69
2024/04/20 05:04:18;;;;;;;0.50;0.50;;;7.50;99.90;;;;;;5431833;26;20010;-69
2024/04/20 05:06:46;;;;;;;0.52;0.40;;;7.50;99.90;;;;;;5435283;26;20018;-70
2024/04/20 05:09:12;;;;;;;0.30;0.30;;;7.60;99.90;;;;;;5435005;26;20009;-69
2024/04/20 05:11:38;;;;;;;1.85;0.73;;;7.60;99.90;;;;;;5431510;26;20010;-69
2024/04/20 05:14:04;;;;;;;2.10;0.80;;;7.50;99.90;;;;;;5427989;26;20129;-69
2024/04/20 05:16:30;;;;;;;1.90;1.20;;;7.50;99.90;;;;;;5432801;26;20013;-70
2024/04/20 05:18:56;;;;;;;5.15;2.67;;;7.50;99.90;;;;;;5428607;26;20046;-69
2024/04/20 05:21:21;;;;;;;3.50;2.05;;;7.50;99.90;;;;;;5437877;26;20095;-69
2024/04/20 05:23:47;;;;;;;3.13;1.95;;;7.60;99.90;;;;;;5432378;26;20010;-69
2024/04/20 05:26:13;;;;;;;5.57;3.05;;;7.60;99.90;;;;;;5438427;26;20035;-69
2024/04/20 05:28:39;;;;;;;3.15;1.88;;;7.60;99.90;;;;;;5433947;26;20168;-69
2024/04/20 05:31:04;;;;;;;4.13;2.35;;;7.60;99.90;;;;;;5434346;26;20011;-69
2024/04/20 05:33:30;;;;;;;3.05;1.80;;;7.50;99.90;;;;;;5436559;26;20565;-70
2024/04/20 05:35:56;;;;;;;1.63;1.23;;;7.50;99.90;;;;;;5434481;26;20002;-69
2024/04/20 05:38:22;;;;;;;3.38;1.65;;;7.50;99.90;;;;;;5426825;26;20019;-69
2024/04/20 05:40:47;;;;;;;3.58;1.75;;;7.50;99.90;;;;;;5437504;26;20054;-69
2024/04/20 05:43:13;;;;;;;4.40;2.20;;;7.50;99.90;;;;;;5433051;26;20050;-69
2024/04/20 05:45:41;;;;;;;4.95;2.22;;;7.60;99.90;;;;;;5438363;26;20039;-69
2024/04/20 05:48:07;;;;;;;4.32;1.90;;;7.60;99.90;;;;;;5434281;26;19999;-70
2024/04/20 05:50:33;;;;;;;2.83;1.88;;;7.60;99.90;;;;;;5437985;26;19999;-69
2024/04/20 05:52:59;;;;;;;5.85;2.50;;;7.60;99.90;;;;;;5436585;26;21016;-69
2024/04/20 05:55:25;;;;;;;6.88;2.33;;;7.60;99.90;;;;;;5438500;26;19995;-69
2024/04/20 05:57:52;;;;;;;3.30;1.60;;;7.60;99.90;;;;;;5431579;26;20052;-69
2024/04/20 06:00:18;;;;;;;7.00;2.45;;;7.50;99.90;;;;;;5434296;26;20331;-69
2024/04/20 06:02:44;;;;;;;4.82;1.90;;;7.50;99.90;;;;;;5426352;26;20064;-68
2024/04/20 06:05:10;;;;;;;6.07;2.00;;;7.50;99.90;;;;;;5436060;26;19995;-69
2024/04/20 06:07:38;;;;;;;2.42;1.30;;;7.50;99.90;;;;;;5430904;26;20366;-69
2024/04/20 06:10:04;;;;;;;4.22;1.60;;;7.60;99.90;;;;;;5437082;26;20079;-69
2024/04/20 06:12:29;;;;;;;6.47;1.50;;;7.60;99.90;;;;;;5429407;26;20007;-70
2024/04/20 06:14:55;;;;;;;3.15;2.00;;;7.70;99.90;;;;;;5434909;26;20087;-70
2024/04/20 06:17:21;;;;;;;3.72;2.10;;;7.70;99.90;;;;;;5432242;26;20002;-71
2024/04/20 06:19:47;;;;;;;4.95;2.30;;;7.70;99.90;;;;;;5436107;26;20010;-71
2024/04/20 06:22:13;;;;;;;3.05;1.52;;;7.90;99.90;;;;;;5434119;26;20003;-71
2024/04/20 06:24:40;;;;;;;4.88;2.08;;;8.00;99.90;;;;;;5429532;26;20582;-71
2024/04/20 06:27:06;;;;;;;1.45;1.23;;;8.20;99.90;;;;;;5429509;26;20017;-71
2024/04/20 06:29:33;;;;;;;3.72;1.90;;;8.40;99.90;;;;;;5436805;26;20002;-71
2024/04/20 06:31:59;;;;;;;2.92;1.60;;;8.50;99.90;;;;;;5428063;26;20002;-71
2024/04/20 06:34:25;;;;;;;3.47;1.42;;;8.60;99.90;;;;;;5434471;26;19991;-70
2024/04/20 06:36:50;;;;;;;1.60;1.02;;;8.70;99.90;;;;;;5430186;26;20343;-69
2024/04/20 06:39:16;;;;;;;2.97;1.73;;;8.70;99.90;;;;;;5432108;26;19995;-69
2024/04/20 06:41:42;;;;;;;2.75;1.70;;;8.70;99.90;;;;;;5430723;26;19995;-71
2024/04/20 06:44:08;;;;;;;1.73;1.38;;;8.90;99.90;;;;;;5436759;26;20005;-71
2024/04/20 06:46:33;;;;;;;3.15;1.65;;;9.00;99.90;;;;;;5433426;26;20519;-71
2024/04/20 06:49:01;;;;;;;5.55;3.70;;;9.40;99.90;;;;;;5429699;26;19994;-72
2024/04/20 06:51:28;;;;;;;3.47;2.08;;;9.70;99.90;;;;;;5432656;26;20010;-71
2024/04/20 06:53:54;;;;;;;4.95;3.10;;;10.10;99.90;;;;;;5430237;26;20007;-71
2024/04/20 06:56:20;;;;;;;6.20;2.20;;;10.40;99.90;;;;;;5429813;26;19995;-69
2024/04/20 06:58:46;;;;;;;3.55;1.55;;;10.80;99.90;;;;;;5430239;26;19995;-70
2024/04/20 07:01:12;;;;;;;1.75;1.17;;;10.90;99.90;;;;;;5431025;26;19996;-69
2024/04/20 07:03:38;;;;;;;2.35;1.50;;;10.90;99.90;;;;;;5433306;26;20084;-69
2024/04/20 07:06:04;;;;;;;2.80;1.50;;;11.00;99.90;;;;;;5435792;26;20375;-70
2024/04/20 07:08:31;;;;;;;2.45;1.70;;;11.10;99.90;;;;;;5435578;26;19999;-69
2024/04/20 07:11:04;;;;;;;4.55;1.40;;;11.00;99.00;;;;;;5433862;26;19998;-69
2024/04/20 07:13:38;;;;;;;3.17;1.45;;;10.80;99.10;;;;;;5428483;26;20056;-69
2024/04/20 07:16:05;;;;;;;3.80;1.50;;;10.60;99.10;;;;;;5431991;26;20507;-70
2024/04/20 07:18:31;;;;;;;2.38;1.55;;;10.40;99.50;;;;;;5427451;26;20009;-70
2024/04/20 07:21:01;;;;;;;2.40;1.95;;;10.30;99.20;;;;;;5434034;26;19998;-69
2024/04/20 07:23:26;;;;;;;1.92;1.63;;;10.30;99.90;;;;;;5431125;26;20342;-69
2024/04/20 07:25:59;;;;;;;2.90;1.15;;;10.30;99.30;;;;;;5433122;26;20003;-69
2024/04/20 07:28:25;;;;;;;3.60;1.83;;;10.20;99.70;;;;;;5430603;26;20022;-69
2024/04/20 07:30:51;;;;;;;3.20;1.50;;;10.20;99.90;;;;;;5432417;26;20068;-69
2024/04/20 07:33:17;;;;;;;1.40;1.10;;;10.20;99.80;;;;;;5421502;26;20003;-68
2024/04/20 07:35:43;;;;;;;2.92;1.70;;;10.10;99.10;;;;;;5434966;26;20018;-69
2024/04/20 07:38:09;;;;;;;2.85;1.38;;;10.00;99.40;;;;;;5429400;26;20048;-69
2024/04/20 07:40:35;;;;;;;2.30;1.60;;;10.00;99.70;;;;;;5435018;26;20038;-69
2024/04/20 07:43:01;;;;;;;2.15;1.00;;;10.10;99.50;;;;;;5436249;26;19995;-69
2024/04/20 07:45:28;;;;;;;4.45;1.55;;;10.20;98.70;;;;;;5431688;26;20002;-70
2024/04/20 07:47:54;;;;;;;1.48;1.00;;;10.20;98.90;;;;;;5461659;26;19999;-69
2024/04/20 07:50:20;;;;;;;6.78;2.67;;;10.20;97.80;;;;;;5435134;26;20739;-69
2024/04/20 07:52:47;;;;;;;7.65;2.47;;;10.30;97.90;;;;;;5437013;26;20037;-70
2024/04/20 07:55:13;;;;;;;4.80;2.20;;;10.40;98.20;;;;;;5435292;26;20007;-69
2024/04/20 07:57:39;;;;;;;3.65;1.73;;;10.40;97.50;;;;;;5433341;26;20017;-69
2024/04/20 08:00:07;;;;;;;8.38;4.03;;;10.50;97.90;;;;;;5410691;26;20000;-69
2024/04/20 08:02:33;;;;;;;9.23;3.90;;;10.50;97.00;;;;;;5428086;26;20834;-69
2024/04/20 08:04:58;;;;;;;5.90;2.58;;;10.50;98.50;;;;;;5435023;26;20046;-69
2024/04/20 08:07:24;;;;;;;3.00;1.83;;;10.40;97.70;;;;;;5436754;26;20003;-69
2024/04/20 08:09:50;;;;;;;3.58;1.98;;;10.40;98.10;;;;;;5435164;26;20615;-69
2024/04/20 08:12:16;;;;;;;5.18;1.90;;;10.30;97.90;;;;;;5430811;26;20008;-69
2024/04/20 08:14:41;;;;;;;3.63;2.10;;;10.20;97.50;;;;;;5428996;26;20463;-69
2024/04/20 08:17:08;;;;;;;4.18;2.10;;;10.20;97.80;;;;;;5434211;26;20076;-70
2024/04/20 08:19:33;;;;;;;2.05;1.38;;;10.30;98.20;;;;;;5432202;26;20010;-69
2024/04/20 08:21:59;;;;;;;4.03;2.00;;;10.50;98.40;;;;;;5434237;26;19991;-70
2024/04/20 08:24:25;;;;;;;1.95;1.38;;;10.70;98.30;;;;;;5436459;26;20025;-70
2024/04/20 08:26:51;;;;;;;5.13;2.83;;;10.80;97.10;;;;;;5432065;26;20002;-69
2024/04/20 08:29:16;;;;;;;4.13;1.92;;;10.70;97.30;;;;;;5432423;26;19990;-69
2024/04/20 08:31:42;;;;;;;2.63;1.17;;;10.70;97.20;;;;;;5434219;26;20007;-69
2024/04/20 08:34:08;;;;;;;1.70;0.80;;;10.70;96.70;;;;;;5435944;26;19994;-70
2024/04/20 08:36:34;;;;;;;2.20;0.88;;;10.60;95.40;;;;;;5436726;26;20439;-69
2024/04/20 08:38:59;;;;;;;1.30;1.02;;;10.50;94.90;;;;;;5427464;26;20053;-69
2024/04/20 08:41:25;;;;;;;3.03;1.58;;;10.50;95.90;;;;;;5436593;26;19998;-69
2024/04/20 08:43:52;;;;;;;2.25;1.35;;;10.60;96.00;;;;;;5430008;26;20005;-69
2024/04/20 08:46:19;;;;;;;1.80;1.25;;;10.60;96.30;;;;;;5436815;26;20006;-69
2024/04/20 08:48:47;;;;;;;2.65;1.60;;;10.70;96.70;;;;;;5433417;26;19994;-68
2024/04/20 08:51:13;;;;;;;3.67;1.02;;;10.80;96.30;;;;;;5436669;26;19999;-69
2024/04/20 08:53:45;;;;;;;1.13;0.80;;;11.00;95.20;;;;;;5428828;26;21097;-69
2024/04/20 08:56:11;;;;;;;2.00;0.95;;;11.20;95.60;;;;;;5435762;26;20012;-69
2024/04/20 08:58:37;;;;;;;1.30;1.00;;;11.40;95.20;;;;;;5433768;26;20006;-69
2024/04/20 09:01:06;;;;;;;2.67;1.00;;;11.50;94.70;;;;;;5435138;26;20040;-69
2024/04/20 09:03:31;;;;;;;1.95;0.95;;;11.60;94.10;;;;;;5429868;26;19999;-69
2024/04/20 09:05:58;;;;;;;2.03;0.80;;;11.60;94.00;;;;;;5432966;26;20009;-69
2024/04/20 09:08:28;;;;;;;0.88;0.70;;;11.60;93.50;;;;;;5435829;26;20079;-69
2024/04/20 09:10:53;;;;;;;1.38;0.93;;;11.60;94.30;;;;;;5435397;26;19994;-68
2024/04/20 09:13:19;;;;;;;2.35;1.10;;;11.80;94.40;;;;;;5426689;26;20044;-68
2024/04/20 09:15:46;;;;;;;2.58;0.88;;;11.80;94.10;;;;;;5430675;26;20010;-68
2024/04/20 09:18:13;;;;;;;1.85;0.90;;;12.00;94.20;;;;;;5424252;26;20081;-68
2024/04/20 09:20:39;;;;;;;1.35;1.00;;;12.00;92.80;;;;;;5433729;26;20534;-68
2024/04/20 09:23:05;;;;;;;2.65;0.80;;;12.00;93.20;;;;;;5427544;26;19992;-68
2024/04/20 09:25:32;;;;;;;1.63;0.80;;;11.90;92.30;;;;;;5431225;26;19996;-68
2024/04/20 09:27:59;;;;;;;1.50;0.90;;;11.90;92.80;;;;;;5429472;26;19999;-68
2024/04/20 09:30:26;;;;;;;1.65;0.88;;;11.90;92.30;;;;;;5430723;26;20072;-68
2024/04/20 09:32:51;;;;;;;2.78;0.65;;;12.00;92.70;;;;;;5426304;26;20017;-68
2024/04/20 09:35:19;;;;;;;2.75;0.95;;;12.00;92.70;;;;;;5433140;26;19995;-68
2024/04/20 09:37:45;;;;;;;2.30;1.00;;;12.00;93.00;;;;;;5430167;26;20003;-68
2024/04/20 09:40:11;;;;;;;0.77;0.77;;;12.00;93.20;;;;;;5434001;26;20397;-68
2024/04/20 09:42:45;;;;;;;2.08;1.00;;;11.90;93.80;;;;;;5431999;26;20010;-68
2024/04/20 09:45:11;;;;;;;1.20;0.80;;;11.90;94.10;;;;;;5432716;26;20069;-67
2024/04/20 09:47:37;;;;;;;2.55;1.08;;;11.90;93.20;;;;;;5429931;26;20510;-68
2024/04/20 09:50:10;;;;;;;1.67;1.00;;;11.80;93.80;;;;;;5428446;26;20003;-68
2024/04/20 09:52:55;;;;;;;3.17;1.50;;;11.70;94.20;;;;;;5428912;26;20058;-68
2024/04/20 09:55:32;;;;;;;1.85;1.13;;;11.70;94.20;;;;;;5431436;26;20011;-68
2024/04/20 09:58:02;;;;;;;2.70;1.08;;;11.60;94.10;;;;;;5434768;26;19999;-69
2024/04/20 10:00:36;;;;;;;1.58;0.90;;;11.60;94.10;;;;;;5435141;26;20007;-68
2024/04/20 10:03:06;;;;;;;1.75;1.00;;;11.70;93.30;;;;;;5426260;26;20755;-68
2024/04/20 10:05:39;;;;;;;1.65;0.90;;;11.70;93.20;;;;;;5433770;26;20599;-68
2024/04/20 10:08:11;;;;;;;1.75;0.98;;;11.90;93.20;;;;;;5434331;26;20084;-68
2024/04/20 10:10:38;;;;;;;1.00;0.90;;;12.00;92.40;;;;;;5435735;26;20026;-69
2024/04/20 10:13:05;;;;;;;0.88;0.70;;;11.90;89.10;;;;;;5432182;26;20010;-69
2024/04/20 10:15:31;;;;;;;2.45;1.00;;;11.80;91.20;;;;;;5437496;26;20009;-69
2024/04/20 10:17:58;;;;;;;1.67;1.08;;;11.70;90.30;;;;;;5435400;26;20011;-69
2024/04/20 10:20:35;;;;;;;3.53;1.00;;;11.60;90.60;;;;;;5430506;26;20572;-69
2024/04/20 10:23:18;;;;;;;2.63;1.05;;;11.50;91.40;;;;;;5430194;26;19995;-68
2024/04/20 10:25:53;;;;;;;0.95;0.73;;;11.50;91.30;;;;;;5434194;26;20034;-69
2024/04/20 10:28:30;;;;;;;3.92;1.00;;;11.60;90.90;;;;;;5438438;26;20010;-69
2024/04/20 10:30:58;;;;;;;3.67;1.10;;;11.70;91.10;;;;;;5435843;26;20046;-69
2024/04/20 10:33:32;;;;;;;1.67;0.77;;;11.80;91.50;;;;;;5436408;26;20470;-69
2024/04/20 10:36:06;;;;;;;1.17;0.70;;;12.00;91.80;;;;;;5432020;26;20046;-69
2024/04/20 10:38:32;;;;;;;1.55;0.70;;;12.20;92.00;;;;;;5435513;26;19995;-69
2024/04/20 10:41:13;;;;;;;1.27;0.70;;;12.50;87.50;;;;;;5433989;26;20040;-68
2024/04/20 10:43:39;;;;;;;4.20;2.08;;;12.70;89.20;;;;;;5436074;26;20039;-70
2024/04/20 10:46:05;;;;;;;4.80;2.78;;;12.70;86.40;;;;;;5434739;26;19994;-69
2024/04/20 10:48:35;;;;;;;4.88;2.35;;;12.50;87.20;;;;;;5439039;26;20010;-69
2024/04/20 10:51:02;;;;;;;3.33;1.55;;;12.40;89.40;;;;;;5432887;26;20014;-69
2024/04/20 10:53:28;;;;;;;7.90;4.70;;;12.40;89.20;;;;;;5435373;26;20006;-69
2024/04/20 10:55:58;;;;;;;12.40;6.28;;;12.30;88.90;;;;;;5434108;26;20377;-69
2024/04/20 10:58:27;;;;;;;8.23;3.33;;;12.40;87.80;;;;;;5434345;26;20031;-69
2024/04/20 11:00:59;;;;;;;8.00;3.90;;;12.60;88.20;;;;;;5435382;26;19999;-69
2024/04/20 11:03:25;;;;;;;6.53;4.75;;;12.70;87.50;;;;;;5439101;26;20009;-69
2024/04/20 11:05:55;;;;;;;23.42;13.90;;;12.80;82.50;;;;;;5433939;26;20849;-69
2024/04/20 11:08:23;;;;;;;3.78;3.08;;;12.90;86.70;;;;;;5435247;26;20014;-68
2024/04/20 11:11:02;;;;;;;5.82;2.08;;;13.10;84.40;;;;;;5433008;26;20014;-69
2024/04/20 11:13:32;;;;;;;1.35;0.90;;;13.20;80.30;;;;;;5425022;26;20614;-69
2024/04/20 11:16:01;;;;;;;2.75;1.40;;;13.30;81.90;;;;;;5433841;26;20839;-70
2024/04/20 11:18:27;;;;;;;2.17;1.25;;;13.10;82.70;;;;;;5431619;26;20013;-70
2024/04/20 11:20:53;;;;;;;1.25;0.80;;;13.20;79.40;;;;;;5434853;26;20580;-69
2024/04/20 11:23:19;;;;;;;0.82;0.60;;;13.10;86.10;;;;;;5438694;26;20017;-70
2024/04/20 11:25:52;;;;;;;1.38;0.88;;;13.00;78.00;;;;;;5430886;26;20461;-69
2024/04/20 11:28:18;;;;;;;2.75;1.00;;;13.00;81.20;;;;;;5435185;26;20000;-69
2024/04/20 11:30:44;;;;;;;1.00;0.75;;;13.00;82.10;;;;;;5434507;26;20552;-72
2024/04/20 11:33:12;;;;;;;2.85;0.63;;;13.10;79.90;;;;;;5433708;26;20003;-69
2024/04/20 11:35:44;;;;;;;2.00;0.95;;;13.00;81.70;;;;;;5430551;26;19999;-69
2024/04/20 11:38:14;;;;;;;1.60;0.88;;;12.90;80.70;;;;;;5433941;26;20071;-68
2024/04/20 11:40:46;;;;;;;0.95;0.63;;;12.80;82.40;;;;;;5434102;26;20003;-69
2024/04/20 11:43:17;;;;;;;2.15;0.57;;;12.80;84.60;;;;;;5437149;26;20059;-69
2024/04/20 11:45:45;;;;;;;0.55;0.55;;;12.80;83.20;;;;;;5435667;26;20002;-71
2024/04/20 11:48:11;;;;;;;0.60;0.60;;;12.80;85.20;;;;;;5437604;26;20011;-69
2024/04/20 11:50:40;;;;;;;1.42;0.70;;;12.90;82.60;;;;;;5435946;26;20022;-69
2024/04/20 11:55:50;;;;;;;0.50;0.50;;;13.10;84.60;;;;;;5432829;26;20367;-69
2024/04/20 11:58:16;;;;;;;0.63;0.40;;;13.10;82.40;;;;;;5434874;26;20076;-69
2024/04/20 12:00:42;;;;;;;1.05;0.60;;;13.20;79.10;;;;;;5433726;26;20007;-69
2024/04/20 12:03:08;;;;;;;0.93;0.70;;;13.20;79.70;;;;;;5433443;26;20001;-69
2024/04/20 12:05:34;;;;;;;0.77;0.70;;;13.00;79.70;;;;;;5429913;26;20494;-69
2024/04/20 12:08:00;;;;;;;0.73;0.60;;;12.90;80.60;;;;;;5432065;26;19999;-69
2024/04/20 12:10:25;;;;;;;0.40;0.30;;;12.90;82.40;;;;;;5430361;26;20006;-69
2024/04/20 12:12:51;;;;;;;0.77;0.40;;;12.90;83.30;;;;;;5435020;26;20064;-69
2024/04/20 12:15:17;;;;;;;0.50;0.50;;;13.00;79.90;;;;;;5433241;26;20011;-69
2024/04/20 12:17:43;;;;;;;1.25;0.70;;;13.00;79.60;;;;;;5437977;26;20634;-69
2024/04/20 12:20:10;;;;;;;0.60;0.60;;;13.00;80.60;;;;;;5432022;26;20466;-69
2024/04/20 12:22:36;;;;;;;0.50;0.40;;;13.10;80.70;;;;;;5437749;26;20087;-69
2024/04/20 12:25:03;;;;;;;1.05;0.50;;;13.10;78.70;;;;;;5427734;26;20029;-69
2024/04/20 12:27:28;;;;;;;1.08;0.52;;;13.20;75.00;;;;;;5433501;26;19991;-69
2024/04/20 12:29:54;;;;;;;0.93;0.50;;;13.10;79.50;;;;;;5430632;26;20068;-68
2024/04/20 12:32:20;;;;;;;2.38;0.40;;;13.00;75.70;;;;;;5436558;26;20343;-69
2024/04/20 12:34:47;;;;;;;1.15;0.63;;;13.00;76.20;;;;;;5428829;26;19999;-69
2024/04/20 12:37:13;;;;;;;1.23;0.60;;;13.10;80.20;;;;;;5436571;26;19999;-69
2024/04/20 12:39:39;;;;;;;1.17;0.75;;;13.10;81.60;;;;;;5431039;26;19995;-69
2024/04/20 12:42:05;;;;;;;3.67;0.75;;;13.20;78.80;;;;;;5434072;26;20005;-69
2024/04/20 12:44:32;;;;;;;0.70;0.70;;;13.20;77.60;;;;;;5428760;26;19995;-68
2024/04/20 12:46:58;;;;;;;1.92;1.00;;;13.20;75.50;;;;;;5433920;26;20092;-70
2024/04/20 12:49:24;;;;;;;2.13;1.45;;;13.10;77.70;;;;;;5435619;26;20557;-69
2024/04/20 12:51:49;;;;;;;3.45;3.10;;;13.00;79.90;;;;;;5430223;26;19995;-69
2024/04/20 12:54:15;;;;;;;1.60;1.50;;;13.10;78.00;;;;;;5434121;26;20069;-69